sensor_id;sensor_type;location;lat;lon;timestamp;P1;P2;P0
12246;PMS7003;6186;52.022;4.692;2023-04-29T00:01:18;16.00;13.75;8.25
12246;PMS7003;6186;52.022;4.692;2023-04-29T00:03:43;14.25;12.25;8.00
12246;PMS7003;6186;52.022;4.692;2023-04-29T00:06:08;18.00;15.50;8.00
12246;PMS7003;6186;52.022;4.692;2023-04-29T00:08:34;19.75;15.25;8.00
12246;PMS7003;6186;52.022;4.692;2023-04-29T00:10:59;19.50;16.75;8.00
12246;PMS7003;6186;52.022;4.692;2023-04-29T00:13:24;19.00;15.75;8.00
12246;PMS7003;6186;52.022;4.692;2023-04-29T00:15:49;14.00;13.25;7.00
12246;PMS7003;6186;52.022;4.692;2023-04-29T00:18:15;16.50;14.00;7.75
12246;PMS7003;6186;52.022;4.692;2023-04-29T00:20:40;17.00;15.00;8.00
12246;PMS7003;6186;52.022;4.692;2023-04-29T00:23:05;15.00;14.50;8.00
12246;PMS7003;6186;52.022;4.692;2023-04-29T00:25:30;18.50;15.00;8.00
12246;PMS7003;6186;52.022;4.692;2023-04-29T00:27:55;15.50;14.25;8.00
12246;PMS7003;6186;52.022;4.692;2023-04-29T00:30:21;18.00;14.50;8.00
12246;PMS7003;6186;52.022;4.692;2023-04-29T00:32:46;19.00;17.00;7.00
12246;PMS7003;6186;52.022;4.692;2023-04-29T00:35:11;15.50;14.75;9.00
12246;PMS7003;6186;52.022;4.692;2023-04-29T00:37:36;15.75;14.00;8.25
12246;PMS7003;6186;52.022;4.692;2023-04-29T00:40:02;16.00;15.50;9.00
12246;PMS7003;6186;52.022;4.692;2023-04-29T00:42:28;16.25;15.00;9.00
12246;PMS7003;6186;52.022;4.692;2023-04-29T00:44:53;18.50;14.25;7.00
12246;PMS7003;6186;52.022;4.692;2023-04-29T00:47:18;21.00;18.50;9.00
12246;PMS7003;6186;52.022;4.692;2023-04-29T00:49:43;16.50;16.00;9.00
12246;PMS7003;6186;52.022;4.692;2023-04-29T00:52:10;19.00;15.00;8.50
12246;PMS7003;6186;52.022;4.692;2023-04-29T00:54:35;17.20;15.00;8.80
12246;PMS7003;6186;52.022;4.692;2023-04-29T00:57:02;19.20;17.40;10.00
12246;PMS7003;6186;52.022;4.692;2023-04-29T00:59:28;21.60;15.40;8.40
12246;PMS7003;6186;52.022;4.692;2023-04-29T01:01:53;17.00;15.50;9.50
12246;PMS7003;6186;52.022;4.692;2023-04-29T01:04:19;17.50;15.75;8.00
12246;PMS7003;6186;52.022;4.692;2023-04-29T01:06:48;17.00;15.25;9.00
12246;PMS7003;6186;52.022;4.692;2023-04-29T01:12:41;21.20;17.80;10.20
12246;PMS7003;6186;52.022;4.692;2023-04-29T01:18:31;16.60;14.20;8.00
12246;PMS7003;6186;52.022;4.692;2023-04-29T01:21:00;17.60;15.80;8.40
12246;PMS7003;6186;52.022;4.692;2023-04-29T01:23:26;20.25;16.50;10.00
12246;PMS7003;6186;52.022;4.692;2023-04-29T01:25:51;18.00;15.20;8.60
12246;PMS7003;6186;52.022;4.692;2023-04-29T01:39:15;17.60;16.20;9.00
12246;PMS7003;6186;52.022;4.692;2023-04-29T01:41:50;22.00;17.40;9.00
12246;PMS7003;6186;52.022;4.692;2023-04-29T01:44:22;15.00;14.60;8.00
12246;PMS7003;6186;52.022;4.692;2023-04-29T01:46:51;15.40;13.00;7.40
12246;PMS7003;6186;52.022;4.692;2023-04-29T01:49:23;15.40;14.00;8.00
12246;PMS7003;6186;52.022;4.692;2023-04-29T01:51:49;16.40;14.20;7.40
12246;PMS7003;6186;52.022;4.692;2023-04-29T01:54:15;15.50;12.25;7.25
12246;PMS7003;6186;52.022;4.692;2023-04-29T01:56:40;16.00;14.75;7.50
12246;PMS7003;6186;52.022;4.692;2023-04-29T01:59:05;15.50;14.50;7.00
12246;PMS7003;6186;52.022;4.692;2023-04-29T02:01:31;13.25;11.75;7.00
12246;PMS7003;6186;52.022;4.692;2023-04-29T02:03:56;14.25;13.75;7.00
12246;PMS7003;6186;52.022;4.692;2023-04-29T02:06:21;13.50;12.75;7.50
12246;PMS7003;6186;52.022;4.692;2023-04-29T02:08:46;19.50;14.75;8.00
12246;PMS7003;6186;52.022;4.692;2023-04-29T02:11:11;14.50;13.25;8.00
12246;PMS7003;6186;52.022;4.692;2023-04-29T02:13:37;15.00;13.50;7.00
12246;PMS7003;6186;52.022;4.692;2023-04-29T02:16:08;15.00;12.75;7.50
12246;PMS7003;6186;52.022;4.692;2023-04-29T02:18:35;20.00;14.60;7.80
12246;PMS7003;6186;52.022;4.692;2023-04-29T02:21:00;14.25;12.25;5.00
12246;PMS7003;6186;52.022;4.692;2023-04-29T02:23:26;13.00;10.25;5.25
12246;PMS7003;6186;52.022;4.692;2023-04-29T02:25:51;19.25;14.50;7.75
12246;PMS7003;6186;52.022;4.692;2023-04-29T02:28:16;15.00;14.00;8.00
12246;PMS7003;6186;52.022;4.692;2023-04-29T02:30:42;19.75;15.00;8.00
12246;PMS7003;6186;52.022;4.692;2023-04-29T02:33:07;15.00;13.00;7.00
12246;PMS7003;6186;52.022;4.692;2023-04-29T02:35:32;16.50;15.00;9.25
12246;PMS7003;6186;52.022;4.692;2023-04-29T02:37:57;16.00;14.00;8.00
12246;PMS7003;6186;52.022;4.692;2023-04-29T02:40:23;15.75;15.00;9.00
12246;PMS7003;6186;52.022;4.692;2023-04-29T02:42:48;15.25;15.00;8.00
12246;PMS7003;6186;52.022;4.692;2023-04-29T02:45:13;19.25;17.00;9.00
12246;PMS7003;6186;52.022;4.692;2023-04-29T02:47:38;19.00;14.00;7.00
12246;PMS7003;6186;52.022;4.692;2023-04-29T02:50:04;16.25;15.25;8.50
12246;PMS7003;6186;52.022;4.692;2023-04-29T02:52:29;14.00;11.00;7.20
12246;PMS7003;6186;52.022;4.692;2023-04-29T02:54:55;13.25;12.25;6.75
12246;PMS7003;6186;52.022;4.692;2023-04-29T02:57:20;15.50;14.25;8.00
12246;PMS7003;6186;52.022;4.692;2023-04-29T02:59:45;13.00;11.25;7.00
12246;PMS7003;6186;52.022;4.692;2023-04-29T03:02:10;14.75;12.50;5.25
12246;PMS7003;6186;52.022;4.692;2023-04-29T03:04:35;15.25;13.00;7.00
12246;PMS7003;6186;52.022;4.692;2023-04-29T03:07:01;12.25;11.25;7.00
12246;PMS7003;6186;52.022;4.692;2023-04-29T03:09:26;13.25;11.75;7.25
12246;PMS7003;6186;52.022;4.692;2023-04-29T03:11:51;14.25;13.50;7.00
12246;PMS7003;6186;52.022;4.692;2023-04-29T03:14:16;13.25;11.00;5.75
12246;PMS7003;6186;52.022;4.692;2023-04-29T03:16:41;14.00;13.50;5.25
12246;PMS7003;6186;52.022;4.692;2023-04-29T03:19:07;14.25;13.00;7.00
12246;PMS7003;6186;52.022;4.692;2023-04-29T03:21:32;13.50;12.25;6.75
12246;PMS7003;6186;52.022;4.692;2023-04-29T03:23:57;14.00;13.00;7.00
12246;PMS7003;6186;52.022;4.692;2023-04-29T03:26:23;16.00;13.00;7.00
12246;PMS7003;6186;52.022;4.692;2023-04-29T03:28:48;13.25;11.75;7.25
12246;PMS7003;6186;52.022;4.692;2023-04-29T03:31:13;18.00;13.50;7.00
12246;PMS7003;6186;52.022;4.692;2023-04-29T03:33:38;11.75;10.00;5.00
12246;PMS7003;6186;52.022;4.692;2023-04-29T03:36:04;15.50;11.75;6.75
12246;PMS7003;6186;52.022;4.692;2023-04-29T03:38:29;12.75;11.25;5.25
12246;PMS7003;6186;52.022;4.692;2023-04-29T03:40:54;13.75;13.00;7.00
12246;PMS7003;6186;52.022;4.692;2023-04-29T03:43:20;12.25;10.50;5.75
12246;PMS7003;6186;52.022;4.692;2023-04-29T03:45:45;11.00;10.00;5.25
12246;PMS7003;6186;52.022;4.692;2023-04-29T03:48:10;12.75;11.00;7.00
12246;PMS7003;6186;52.022;4.692;2023-04-29T03:50:35;10.25;9.25;5.00
12246;PMS7003;6186;52.022;4.692;2023-04-29T03:53:01;13.25;13.00;7.00
12246;PMS7003;6186;52.022;4.692;2023-04-29T03:55:26;11.00;10.50;4.50
12246;PMS7003;6186;52.022;4.692;2023-04-29T03:57:51;15.00;14.00;6.00
12246;PMS7003;6186;52.022;4.692;2023-04-29T04:00:16;10.25;9.75;7.00
12246;PMS7003;6186;52.022;4.692;2023-04-29T04:02:42;9.50;9.50;5.00
12246;PMS7003;6186;52.022;4.692;2023-04-29T04:05:07;13.00;11.50;7.00
12246;PMS7003;6186;52.022;4.692;2023-04-29T04:07:33;13.00;10.00;4.25
12246;PMS7003;6186;52.022;4.692;2023-04-29T04:09:58;13.50;11.50;5.25
12246;PMS7003;6186;52.022;4.692;2023-04-29T04:12:23;10.50;10.50;5.25
12246;PMS7003;6186;52.022;4.692;2023-04-29T04:14:48;12.25;11.25;6.00
12246;PMS7003;6186;52.022;4.692;2023-04-29T04:17:13;13.50;12.25;5.50
12246;PMS7003;6186;52.022;4.692;2023-04-29T04:19:39;13.25;10.00;4.75
12246;PMS7003;6186;52.022;4.692;2023-04-29T04:22:04;12.75;11.00;7.00
12246;PMS7003;6186;52.022;4.692;2023-04-29T04:24:29;11.00;10.00;7.00
12246;PMS7003;6186;52.022;4.692;2023-04-29T04:26:54;13.50;11.00;5.50
12246;PMS7003;6186;52.022;4.692;2023-04-29T04:29:19;11.50;9.25;4.50
12246;PMS7003;6186;52.022;4.692;2023-04-29T04:31:45;13.00;10.50;5.25
12246;PMS7003;6186;52.022;4.692;2023-04-29T04:34:10;15.50;13.50;7.00
12246;PMS7003;6186;52.022;4.692;2023-04-29T04:36:35;14.25;12.75;7.00
12246;PMS7003;6186;52.022;4.692;2023-04-29T04:39:00;15.00;14.00;7.50
12246;PMS7003;6186;52.022;4.692;2023-04-29T04:41:26;13.00;11.75;7.25
12246;PMS7003;6186;52.022;4.692;2023-04-29T04:43:51;13.50;11.25;5.25
12246;PMS7003;6186;52.022;4.692;2023-04-29T04:46:16;16.50;12.25;7.00
12246;PMS7003;6186;52.022;4.692;2023-04-29T04:48:41;14.25;12.50;8.00
12246;PMS7003;6186;52.022;4.692;2023-04-29T04:51:10;13.00;11.25;7.75
12246;PMS7003;6186;52.022;4.692;2023-04-29T04:53:37;14.00;10.80;7.00
12246;PMS7003;6186;52.022;4.692;2023-04-29T04:56:03;14.80;13.60;7.00
12246;PMS7003;6186;52.022;4.692;2023-04-29T04:58:28;12.50;10.50;7.00
12246;PMS7003;6186;52.022;4.692;2023-04-29T05:00:54;12.50;11.25;7.00
12246;PMS7003;6186;52.022;4.692;2023-04-29T05:03:19;14.25;13.00;7.00
12246;PMS7003;6186;52.022;4.692;2023-04-29T05:05:44;15.75;13.00;7.00
12246;PMS7003;6186;52.022;4.692;2023-04-29T05:08:09;14.75;11.25;6.75
12246;PMS7003;6186;52.022;4.692;2023-04-29T05:10:35;12.00;10.00;5.50
12246;PMS7003;6186;52.022;4.692;2023-04-29T05:13:00;15.60;13.80;7.00
12246;PMS7003;6186;52.022;4.692;2023-04-29T05:15:26;16.25;14.25;7.75
12246;PMS7003;6186;52.022;4.692;2023-04-29T05:17:51;17.00;15.50;8.00
12246;PMS7003;6186;52.022;4.692;2023-04-29T05:20:16;14.25;13.00;7.00
12246;PMS7003;6186;52.022;4.692;2023-04-29T05:22:41;13.75;13.00;7.00
12246;PMS7003;6186;52.022;4.692;2023-04-29T05:25:07;13.00;11.25;6.25
12246;PMS7003;6186;52.022;4.692;2023-04-29T05:27:32;11.25;11.00;5.25
12246;PMS7003;6186;52.022;4.692;2023-04-29T05:29:58;10.50;10.50;5.25
12246;PMS7003;6186;52.022;4.692;2023-04-29T05:32:23;12.50;11.00;7.00
12246;PMS7003;6186;52.022;4.692;2023-04-29T05:34:48;16.00;14.00;7.50
12246;PMS7003;6186;52.022;4.692;2023-04-29T05:37:13;13.25;11.25;7.25
12246;PMS7003;6186;52.022;4.692;2023-04-29T05:39:38;10.75;10.50;5.75
12246;PMS7003;6186;52.022;4.692;2023-04-29T05:42:04;11.25;9.75;5.25
12246;PMS7003;6186;52.022;4.692;2023-04-29T05:44:29;11.00;10.25;5.00
12246;PMS7003;6186;52.022;4.692;2023-04-29T05:46:54;10.00;10.00;7.00
12246;PMS7003;6186;52.022;4.692;2023-04-29T05:49:19;14.25;10.00;7.00
12246;PMS7003;6186;52.022;4.692;2023-04-29T05:51:44;14.75;13.25;7.00
12246;PMS7003;6186;52.022;4.692;2023-04-29T05:54:10;14.25;13.00;7.00
12246;PMS7003;6186;52.022;4.692;2023-04-29T05:56:35;14.50;13.00;6.50
12246;PMS7003;6186;52.022;4.692;2023-04-29T05:59:00;15.25;13.25;7.00
12246;PMS7003;6186;52.022;4.692;2023-04-29T06:01:25;16.75;14.50;7.25
12246;PMS7003;6186;52.022;4.692;2023-04-29T06:03:51;14.50;13.00;7.00
12246;PMS7003;6186;52.022;4.692;2023-04-29T06:06:17;13.25;12.00;7.00
12246;PMS7003;6186;52.022;4.692;2023-04-29T06:08:43;15.00;13.00;7.20
12246;PMS7003;6186;52.022;4.692;2023-04-29T06:11:08;14.75;12.25;6.25
12246;PMS7003;6186;52.022;4.692;2023-04-29T06:13:33;15.75;14.25;7.00
12246;PMS7003;6186;52.022;4.692;2023-04-29T06:15:58;12.75;10.50;5.00
12246;PMS7003;6186;52.022;4.692;2023-04-29T06:18:24;14.00;13.50;7.00
12246;PMS7003;6186;52.022;4.692;2023-04-29T06:20:49;14.00;13.25;6.50
12246;PMS7003;6186;52.022;4.692;2023-04-29T06:23:14;15.50;13.50;7.00
12246;PMS7003;6186;52.022;4.692;2023-04-29T06:25:39;13.50;13.25;8.00
12246;PMS7003;6186;52.022;4.692;2023-04-29T06:28:04;13.25;13.25;8.00
12246;PMS7003;6186;52.022;4.692;2023-04-29T06:30:30;14.25;13.25;6.50
12246;PMS7003;6186;52.022;4.692;2023-04-29T06:32:55;11.50;10.25;6.00
12246;PMS7003;6186;52.022;4.692;2023-04-29T06:35:20;17.00;14.50;7.00
12246;PMS7003;6186;52.022;4.692;2023-04-29T06:37:45;11.25;10.00;5.00
12246;PMS7003;6186;52.022;4.692;2023-04-29T06:40:11;13.50;12.25;7.00
12246;PMS7003;6186;52.022;4.692;2023-04-29T06:42:36;11.50;11.00;5.00
12246;PMS7003;6186;52.022;4.692;2023-04-29T06:45:01;14.00;13.00;7.00
12246;PMS7003;6186;52.022;4.692;2023-04-29T06:47:27;14.00;12.00;7.50
12246;PMS7003;6186;52.022;4.692;2023-04-29T06:49:52;14.50;12.25;5.50
12246;PMS7003;6186;52.022;4.692;2023-04-29T06:52:17;15.00;12.25;7.00
12246;PMS7003;6186;52.022;4.692;2023-04-29T06:54:42;15.00;11.75;5.00
12246;PMS7003;6186;52.022;4.692;2023-04-29T06:57:08;16.25;13.75;7.25
12246;PMS7003;6186;52.022;4.692;2023-04-29T06:59:33;14.50;14.00;8.00
12246;PMS7003;6186;52.022;4.692;2023-04-29T07:01:58;11.50;9.25;5.00
12246;PMS7003;6186;52.022;4.692;2023-04-29T07:04:23;12.25;11.00;7.00
12246;PMS7003;6186;52.022;4.692;2023-04-29T07:06:49;13.50;12.75;7.00
12246;PMS7003;6186;52.022;4.692;2023-04-29T07:09:14;15.00;13.75;6.75
12246;PMS7003;6186;52.022;4.692;2023-04-29T07:11:39;11.25;10.50;5.00
12246;PMS7003;6186;52.022;4.692;2023-04-29T07:14:05;17.00;15.50;7.25
12246;PMS7003;6186;52.022;4.692;2023-04-29T07:16:30;12.00;10.00;4.75
12246;PMS7003;6186;52.022;4.692;2023-04-29T07:18:55;11.50;10.00;5.00
12246;PMS7003;6186;52.022;4.692;2023-04-29T07:21:20;11.75;10.50;4.25
12246;PMS7003;6186;52.022;4.692;2023-04-29T07:23:46;10.50;9.50;5.25
12246;PMS7003;6186;52.022;4.692;2023-04-29T07:26:12;11.00;10.00;5.00
12246;PMS7003;6186;52.022;4.692;2023-04-29T07:28:38;13.00;12.20;6.40
12246;PMS7003;6186;52.022;4.692;2023-04-29T07:31:03;11.75;10.75;5.00
12246;PMS7003;6186;52.022;4.692;2023-04-29T07:33:29;10.75;10.75;5.50
12246;PMS7003;6186;52.022;4.692;2023-04-29T07:35:54;12.00;11.00;5.00
12246;PMS7003;6186;52.022;4.692;2023-04-29T07:38:19;13.50;10.75;4.75
12246;PMS7003;6186;52.022;4.692;2023-04-29T07:40:44;13.00;11.00;5.25
12246;PMS7003;6186;52.022;4.692;2023-04-29T07:43:10;13.50;11.75;5.25
12246;PMS7003;6186;52.022;4.692;2023-04-29T07:45:35;10.00;10.00;5.00
12246;PMS7003;6186;52.022;4.692;2023-04-29T07:48:00;9.75;9.75;5.00
12246;PMS7003;6186;52.022;4.692;2023-04-29T07:50:25;11.50;10.25;5.00
12246;PMS7003;6186;52.022;4.692;2023-04-29T07:52:50;12.50;11.50;6.00
12246;PMS7003;6186;52.022;4.692;2023-04-29T07:55:17;10.00;10.00;5.00
12246;PMS7003;6186;52.022;4.692;2023-04-29T07:57:42;11.80;11.00;6.20
12246;PMS7003;6186;52.022;4.692;2023-04-29T08:00:08;15.00;12.25;5.00
12246;PMS7003;6186;52.022;4.692;2023-04-29T08:02:33;11.75;10.00;5.25
12246;PMS7003;6186;52.022;4.692;2023-04-29T08:04:58;11.75;11.50;6.00
12246;PMS7003;6186;52.022;4.692;2023-04-29T08:07:24;12.00;11.00;5.00
12246;PMS7003;6186;52.022;4.692;2023-04-29T08:09:49;13.75;10.75;4.75
12246;PMS7003;6186;52.022;4.692;2023-04-29T08:12:14;12.00;11.50;6.00
12246;PMS7003;6186;52.022;4.692;2023-04-29T08:14:39;9.25;8.25;5.50
12246;PMS7003;6186;52.022;4.692;2023-04-29T08:17:04;9.50;9.25;5.00
12246;PMS7003;6186;52.022;4.692;2023-04-29T08:19:30;8.00;8.00;4.50
12246;PMS7003;6186;52.022;4.692;2023-04-29T08:21:55;9.75;9.00;5.00
12246;PMS7003;6186;52.022;4.692;2023-04-29T08:24:20;11.00;8.25;5.00
12246;PMS7003;6186;52.022;4.692;2023-04-29T08:26:45;9.75;8.00;4.00
12246;PMS7003;6186;52.022;4.692;2023-04-29T08:29:10;9.00;9.00;4.00
12246;PMS7003;6186;52.022;4.692;2023-04-29T08:31:36;8.75;7.00;4.00
12246;PMS7003;6186;52.022;4.692;2023-04-29T08:34:01;12.50;10.25;5.00
12246;PMS7003;6186;52.022;4.692;2023-04-29T08:36:26;9.50;9.00;4.50
12246;PMS7003;6186;52.022;4.692;2023-04-29T08:38:51;10.00;9.00;5.00
12246;PMS7003;6186;52.022;4.692;2023-04-29T08:41:17;8.25;7.25;4.25
12246;PMS7003;6186;52.022;4.692;2023-04-29T08:43:42;9.25;9.00;5.00
12246;PMS7003;6186;52.022;4.692;2023-04-29T08:46:07;9.00;8.25;4.25
12246;PMS7003;6186;52.022;4.692;2023-04-29T08:48:35;8.40;7.20;4.20
12246;PMS7003;6186;52.022;4.692;2023-04-29T08:51:01;8.00;7.60;4.00
12246;PMS7003;6186;52.022;4.692;2023-04-29T08:53:26;10.50;9.25;5.75
12246;PMS7003;6186;52.022;4.692;2023-04-29T08:55:51;13.50;9.75;5.00
12246;PMS7003;6186;52.022;4.692;2023-04-29T08:58:18;11.20;8.60;5.00
12246;PMS7003;6186;52.022;4.692;2023-04-29T09:00:44;9.20;9.00;5.00
12246;PMS7003;6186;52.022;4.692;2023-04-29T09:05:54;9.20;8.80;5.00
12246;PMS7003;6186;52.022;4.692;2023-04-29T09:08:22;8.40;8.40;5.00
12246;PMS7003;6186;52.022;4.692;2023-04-29T09:10:51;9.00;8.40;4.00
12246;PMS7003;6186;52.022;4.692;2023-04-29T09:13:23;8.80;8.80;5.20
12246;PMS7003;6186;52.022;4.692;2023-04-29T09:15:50;8.80;7.60;4.00
12246;PMS7003;6186;52.022;4.692;2023-04-29T09:21:12;8.40;8.00;4.00
12246;PMS7003;6186;52.022;4.692;2023-04-29T09:23:57;8.20;7.40;4.00
12246;PMS7003;6186;52.022;4.692;2023-04-29T09:26:25;7.40;7.40;4.40
12246;PMS7003;6186;52.022;4.692;2023-04-29T09:31:38;9.40;9.00;5.00
12246;PMS7003;6186;52.022;4.692;2023-04-29T09:34:03;8.50;8.00;5.50
12246;PMS7003;6186;52.022;4.692;2023-04-29T09:36:47;9.50;8.75;5.00
12246;PMS7003;6186;52.022;4.692;2023-04-29T09:42:01;13.00;12.00;5.50
12246;PMS7003;6186;52.022;4.692;2023-04-29T09:44:26;9.00;9.00;6.00
12246;PMS7003;6186;52.022;4.692;2023-04-29T09:46:56;10.00;9.40;5.80
12246;PMS7003;6186;52.022;4.692;2023-04-29T09:52:02;9.80;8.60;4.80
12246;PMS7003;6186;52.022;4.692;2023-04-29T09:54:29;11.00;10.40;5.40
12246;PMS7003;6186;52.022;4.692;2023-04-29T09:56:56;10.20;10.20;5.00
12246;PMS7003;6186;52.022;4.692;2023-04-29T09:59:23;7.80;7.40;5.00
12246;PMS7003;6186;52.022;4.692;2023-04-29T10:01:49;8.00;7.60;5.40
12246;PMS7003;6186;52.022;4.692;2023-04-29T10:04:16;11.00;11.00;6.00
12246;PMS7003;6186;52.022;4.692;2023-04-29T10:06:44;11.60;11.20;7.80
12246;PMS7003;6186;52.022;4.692;2023-04-29T10:09:12;10.40;9.20;5.00
12246;PMS7003;6186;52.022;4.692;2023-04-29T10:11:39;11.00;8.80;5.80
12246;PMS7003;6186;52.022;4.692;2023-04-29T10:14:04;12.25;10.75;6.00
12246;PMS7003;6186;52.022;4.692;2023-04-29T10:16:33;10.00;9.60;5.20
12246;PMS7003;6186;52.022;4.692;2023-04-29T10:19:03;9.00;9.00;5.20
12246;PMS7003;6186;52.022;4.692;2023-04-29T10:21:35;6.60;6.60;3.60
12246;PMS7003;6186;52.022;4.692;2023-04-29T10:24:01;10.00;8.80;5.00
12246;PMS7003;6186;52.022;4.692;2023-04-29T10:26:28;10.00;9.00;5.00
12246;PMS7003;6186;52.022;4.692;2023-04-29T10:28:54;11.00;10.20;6.60
12246;PMS7003;6186;52.022;4.692;2023-04-29T10:31:21;9.20;8.60;4.40
12246;PMS7003;6186;52.022;4.692;2023-04-29T10:33:50;8.00;8.00;5.00
12246;PMS7003;6186;52.022;4.692;2023-04-29T10:36:19;9.20;8.40;4.60
12246;PMS7003;6186;52.022;4.692;2023-04-29T10:38:46;11.80;9.60;5.00
12246;PMS7003;6186;52.022;4.692;2023-04-29T10:41:19;11.80;11.00;6.40
12246;PMS7003;6186;52.022;4.692;2023-04-29T10:43:46;10.80;10.20;5.80
12246;PMS7003;6186;52.022;4.692;2023-04-29T10:48:44;9.20;9.00;5.40
12246;PMS7003;6186;52.022;4.692;2023-04-29T10:51:10;9.20;8.20;5.60
12246;PMS7003;6186;52.022;4.692;2023-04-29T10:53:36;8.50;8.00;5.00
12246;PMS7003;6186;52.022;4.692;2023-04-29T10:56:34;9.00;8.80;5.00
12246;PMS7003;6186;52.022;4.692;2023-04-29T10:59:01;8.60;8.20;5.00
12246;PMS7003;6186;52.022;4.692;2023-04-29T11:01:39;10.00;7.00;4.00
12246;PMS7003;6186;52.022;4.692;2023-04-29T11:04:05;5.80;5.40;3.00
12246;PMS7003;6186;52.022;4.692;2023-04-29T11:09:02;7.20;7.00;4.00
12246;PMS7003;6186;52.022;4.692;2023-04-29T11:11:43;6.60;6.60;4.00
12246;PMS7003;6186;52.022;4.692;2023-04-29T11:14:12;9.00;8.60;5.00
12246;PMS7003;6186;52.022;4.692;2023-04-29T11:16:49;7.60;6.60;3.00
12246;PMS7003;6186;52.022;4.692;2023-04-29T11:19:16;5.60;5.60;3.20
12246;PMS7003;6186;52.022;4.692;2023-04-29T11:21:42;6.40;6.40;3.60
12246;PMS7003;6186;52.022;4.692;2023-04-29T11:24:09;7.00;6.00;3.00
12246;PMS7003;6186;52.022;4.692;2023-04-29T11:26:34;7.00;5.50;3.00
12246;PMS7003;6186;52.022;4.692;2023-04-29T11:29:00;7.00;6.00;3.00
12246;PMS7003;6186;52.022;4.692;2023-04-29T11:31:28;9.00;8.25;4.00
12246;PMS7003;6186;52.022;4.692;2023-04-29T11:33:55;6.60;6.00;3.40
12246;PMS7003;6186;52.022;4.692;2023-04-29T11:36:20;8.50;6.50;3.00
12246;PMS7003;6186;52.022;4.692;2023-04-29T11:38:45;9.75;7.00;4.00
12246;PMS7003;6186;52.022;4.692;2023-04-29T11:41:10;7.00;7.00;4.00
12246;PMS7003;6186;52.022;4.692;2023-04-29T11:43:36;8.50;7.00;4.00
12246;PMS7003;6186;52.022;4.692;2023-04-29T11:46:02;5.80;5.80;3.60
12246;PMS7003;6186;52.022;4.692;2023-04-29T11:48:27;6.25;5.75;3.25
12246;PMS7003;6186;52.022;4.692;2023-04-29T11:50:53;5.50;5.00;2.50
12246;PMS7003;6186;52.022;4.692;2023-04-29T11:53:23;5.60;5.00;2.60
12246;PMS7003;6186;52.022;4.692;2023-04-29T11:55:51;6.00;6.00;3.40
12246;PMS7003;6186;52.022;4.692;2023-04-29T11:58:19;6.00;6.00;3.00
12246;PMS7003;6186;52.022;4.692;2023-04-29T12:00:45;9.00;7.40;4.00
12246;PMS7003;6186;52.022;4.692;2023-04-29T12:03:15;7.80;7.00;4.20
12246;PMS7003;6186;52.022;4.692;2023-04-29T12:05:49;6.80;6.60;4.00
12246;PMS7003;6186;52.022;4.692;2023-04-29T12:08:22;6.00;5.20;3.00
12246;PMS7003;6186;52.022;4.692;2023-04-29T12:10:49;6.00;5.80;3.00
12246;PMS7003;6186;52.022;4.692;2023-04-29T12:13:15;7.80;6.80;4.20
12246;PMS7003;6186;52.022;4.692;2023-04-29T12:15:42;6.00;6.00;3.00
12246;PMS7003;6186;52.022;4.692;2023-04-29T12:18:12;7.00;7.00;4.00
12246;PMS7003;6186;52.022;4.692;2023-04-29T12:20:39;6.60;6.60;4.00
12246;PMS7003;6186;52.022;4.692;2023-04-29T12:23:15;8.40;7.00;4.00
12246;PMS7003;6186;52.022;4.692;2023-04-29T12:25:51;7.00;7.00;4.00
12246;PMS7003;6186;52.022;4.692;2023-04-29T12:28:17;7.00;6.40;3.20
12246;PMS7003;6186;52.022;4.692;2023-04-29T12:30:44;6.60;6.60;4.00
12246;PMS7003;6186;52.022;4.692;2023-04-29T12:33:10;7.00;7.00;4.00
12246;PMS7003;6186;52.022;4.692;2023-04-29T12:35:42;7.40;7.00;3.00
12246;PMS7003;6186;52.022;4.692;2023-04-29T12:38:07;7.00;6.00;4.00
12246;PMS7003;6186;52.022;4.692;2023-04-29T12:40:33;8.50;7.00;3.50
12246;PMS7003;6186;52.022;4.692;2023-04-29T12:43:05;7.25;7.00;3.00
12246;PMS7003;6186;52.022;4.692;2023-04-29T12:45:31;10.00;8.00;4.40
12246;PMS7003;6186;52.022;4.692;2023-04-29T12:47:58;7.80;6.80;4.00
12246;PMS7003;6186;52.022;4.692;2023-04-29T12:50:30;10.20;8.40;4.60
12246;PMS7003;6186;52.022;4.692;2023-04-29T12:53:00;8.00;7.40;4.00
12246;PMS7003;6186;52.022;4.692;2023-04-29T12:55:26;8.20;7.00;4.00
12246;PMS7003;6186;52.022;4.692;2023-04-29T12:57:51;6.00;6.00;4.00
12246;PMS7003;6186;52.022;4.692;2023-04-29T13:00:16;11.50;10.50;6.00
12246;PMS7003;6186;52.022;4.692;2023-04-29T13:02:42;8.00;7.00;4.00
12246;PMS7003;6186;52.022;4.692;2023-04-29T13:05:07;7.75;7.00;4.00
12246;PMS7003;6186;52.022;4.692;2023-04-29T13:07:32;9.50;6.75;4.00
12246;PMS7003;6186;52.022;4.692;2023-04-29T13:09:58;7.75;7.25;4.75
12246;PMS7003;6186;52.022;4.692;2023-04-29T13:12:23;10.75;9.00;5.00
12246;PMS7003;6186;52.022;4.692;2023-04-29T13:14:48;7.75;7.75;5.00
12246;PMS7003;6186;52.022;4.692;2023-04-29T13:17:13;11.25;8.75;4.00
12246;PMS7003;6186;52.022;4.692;2023-04-29T13:19:39;8.50;8.00;5.00
12246;PMS7003;6186;52.022;4.692;2023-04-29T13:22:04;10.25;9.00;5.00
12246;PMS7003;6186;52.022;4.692;2023-04-29T13:24:29;9.00;8.75;5.00
12246;PMS7003;6186;52.022;4.692;2023-04-29T13:26:54;8.25;8.00;5.00
12246;PMS7003;6186;52.022;4.692;2023-04-29T13:29:20;9.25;8.25;4.25
12246;PMS7003;6186;52.022;4.692;2023-04-29T13:31:45;9.00;8.75;4.75
12246;PMS7003;6186;52.022;4.692;2023-04-29T13:34:10;7.25;6.25;3.50
12246;PMS7003;6186;52.022;4.692;2023-04-29T13:36:35;8.75;7.75;4.00
12246;PMS7003;6186;52.022;4.692;2023-04-29T13:39:00;10.00;9.00;5.00
12246;PMS7003;6186;52.022;4.692;2023-04-29T13:41:26;9.50;7.75;4.75
12246;PMS7003;6186;52.022;4.692;2023-04-29T13:43:51;7.00;7.00;4.00
12246;PMS7003;6186;52.022;4.692;2023-04-29T13:46:16;6.00;6.00;4.00
12246;PMS7003;6186;52.022;4.692;2023-04-29T13:48:41;8.00;8.00;5.00
12246;PMS7003;6186;52.022;4.692;2023-04-29T13:51:07;8.00;7.00;4.00
12246;PMS7003;6186;52.022;4.692;2023-04-29T13:53:32;9.00;7.50;4.00
12246;PMS7003;6186;52.022;4.692;2023-04-29T13:55:57;7.75;7.00;4.00
12246;PMS7003;6186;52.022;4.692;2023-04-29T13:58:23;8.20;8.20;4.00
12246;PMS7003;6186;52.022;4.692;2023-04-29T14:00:48;7.75;6.75;3.50
12246;PMS7003;6186;52.022;4.692;2023-04-29T14:03:14;7.00;7.00;4.00
12246;PMS7003;6186;52.022;4.692;2023-04-29T14:05:39;8.00;8.00;4.00
12246;PMS7003;6186;52.022;4.692;2023-04-29T14:08:05;9.20;6.40;3.40
12246;PMS7003;6186;52.022;4.692;2023-04-29T14:10:30;7.00;6.25;3.00
12246;PMS7003;6186;52.022;4.692;2023-04-29T14:12:55;8.50;8.25;5.50
12246;PMS7003;6186;52.022;4.692;2023-04-29T14:15:20;9.00;7.00;4.25
12246;PMS7003;6186;52.022;4.692;2023-04-29T14:17:46;7.25;7.25;3.75
12246;PMS7003;6186;52.022;4.692;2023-04-29T14:20:11;9.00;7.25;4.00
12246;PMS7003;6186;52.022;4.692;2023-04-29T14:22:37;8.60;7.00;4.20
12246;PMS7003;6186;52.022;4.692;2023-04-29T14:25:02;10.00;9.00;4.00
12246;PMS7003;6186;52.022;4.692;2023-04-29T14:27:27;9.75;8.25;5.00
12246;PMS7003;6186;52.022;4.692;2023-04-29T14:29:52;7.00;7.00;4.00
12246;PMS7003;6186;52.022;4.692;2023-04-29T14:32:18;10.00;9.00;4.25
12246;PMS7003;6186;52.022;4.692;2023-04-29T14:34:43;7.25;7.00;3.75
12246;PMS7003;6186;52.022;4.692;2023-04-29T14:37:08;6.25;6.00;3.50
12246;PMS7003;6186;52.022;4.692;2023-04-29T14:39:33;8.50;8.00;3.75
12246;PMS7003;6186;52.022;4.692;2023-04-29T14:41:58;7.75;7.75;4.00
12246;PMS7003;6186;52.022;4.692;2023-04-29T14:44:24;5.75;5.75;3.25
12246;PMS7003;6186;52.022;4.692;2023-04-29T14:46:49;6.75;6.75;3.25
12246;PMS7003;6186;52.022;4.692;2023-04-29T14:49:14;8.25;7.00;3.25